createdAt,value
2022-12-17T00:02:47.061Z,0
2022-12-17T00:08:01.138Z,4.8
2022-12-17T00:13:25.497Z,7.2
2022-12-17T00:19:24.957Z,7.2
2022-12-17T00:24:43.223Z,5.9
2022-12-17T00:30:24.531Z,5.9
2022-12-17T00:35:38.383Z,5.9
2022-12-17T00:41:32.737Z,8.4
2022-12-17T00:47:04.358Z,7.2
2022-12-17T00:52:33.813Z,8.4
2022-12-17T00:58:05.045Z,9.6
2022-12-17T01:03:23.065Z,9.6
2022-12-17T01:09:09.520Z,10.7
2022-12-17T01:14:17.755Z,4.8
2022-12-17T01:20:03.796Z,5.9
2022-12-17T01:25:28.533Z,7.2
2022-12-17T01:30:55.310Z,9.6
2022-12-17T01:36:42.353Z,9.6
2022-12-17T01:42:00.184Z,9.6
2022-12-17T01:47:37.410Z,5.9
2022-12-17T01:52:58.999Z,7.2
2022-12-17T01:58:54.745Z,9.6
2022-12-17T02:04:03.452Z,9.6
2022-12-17T02:09:48.232Z,8.4
2022-12-17T02:15:24.117Z,10.7
2022-12-17T02:21:04.007Z,9.6
2022-12-17T02:26:24.379Z,9.6
2022-12-17T02:31:55.818Z,5.9
2022-12-17T02:37:19.019Z,7.2
2022-12-17T02:42:52.992Z,9.6
2022-12-17T02:48:40.623Z,7.2
2022-12-17T02:53:57.121Z,8.4
2022-12-17T02:59:35.363Z,7.2
2022-12-17T03:04:50.349Z,9.6
2022-12-17T03:10:28.131Z,8.4
2022-12-17T03:16:08.843Z,9.6
2022-12-17T03:21:46.307Z,8.4
2022-12-17T03:27:05.092Z,8.4
2022-12-17T03:32:35.806Z,9.6
2022-12-17T03:38:25.943Z,9.6
2022-12-17T03:43:35.668Z,8.4
2022-12-17T03:49:04.904Z,8.4
2022-12-17T03:54:46.509Z,8.4
2022-12-17T04:00:23.795Z,7.2
2022-12-17T04:05:50.268Z,8.4
2022-12-17T04:11:21.780Z,9.6
2022-12-17T04:16:57.430Z,9.6
2022-12-17T04:22:22.367Z,8.4
2022-12-17T04:27:53.066Z,9.6
2022-12-17T04:33:43.329Z,9.6
2022-12-17T04:38:52.964Z,9.6
2022-12-17T04:44:33.274Z,8.4
2022-12-17T04:49:53.890Z,10.7
2022-12-17T04:55:30.197Z,9.6
2022-12-17T05:01:16.285Z,9.6
2022-12-17T05:06:48.453Z,9.6
2022-12-17T05:12:23.642Z,8.4
2022-12-17T05:17:37.700Z,10.7
2022-12-17T05:23:14.796Z,7.2
2022-12-17T05:28:56.932Z,5.9
2022-12-17T05:34:26.238Z,9.6
2022-12-17T05:40:12.352Z,9.6
2022-12-17T05:45:18.153Z,7.2
2022-12-17T05:50:54.147Z,8.4
2022-12-17T05:56:21.127Z,7.2
2022-12-17T06:01:58.115Z,8.4
2022-12-17T06:07:44.784Z,9.6
2022-12-17T06:13:07.663Z,10.7
2022-12-17T06:18:30.863Z,7.2
2022-12-17T06:24:00.168Z,8.4
2022-12-17T06:29:38.659Z,9.6
2022-12-17T06:35:07.896Z,7.2
2022-12-17T06:40:41.058Z,8.4
2022-12-17T06:46:15.121Z,3.6
2022-12-17T06:51:57.721Z,0
2022-12-17T06:57:06.428Z,0
2022-12-17T07:02:54.821Z,3.6
2022-12-17T07:08:22.828Z,3.6
2022-12-17T07:13:48.543Z,5.9
2022-12-17T07:19:13.568Z,8.4
2022-12-17T07:25:00.258Z,2.4
2022-12-17T07:30:22.837Z,4.8
2022-12-17T07:36:13.087Z,2.4
2022-12-17T07:41:34.321Z,3.6
2022-12-17T07:47:06.944Z,0
2022-12-17T07:52:21.898Z,2.4
2022-12-17T07:57:55.807Z,0
2022-12-17T08:03:40.922Z,0
2022-12-17T08:08:55.377Z,0
2022-12-17T08:14:51.967Z,2.4
2022-12-17T08:20:08.372Z,0
2022-12-17T08:25:27.947Z,0
2022-12-17T08:31:17.330Z,2.4
2022-12-17T08:36:50.272Z,0
2022-12-17T08:42:22.416Z,2.4
2022-12-17T08:47:38.003Z,0
2022-12-17T08:53:25.479Z,0
2022-12-17T08:59:01.017Z,2.4
2022-12-17T09:04:35.311Z,4.8
2022-12-17T09:09:56.056Z,0
2022-12-17T09:15:27.343Z,4.8
2022-12-17T09:20:44.623Z,2.4
2022-12-17T09:26:40.405Z,3.6
2022-12-17T09:32:01.787Z,3.6
2022-12-17T09:37:28.135Z,4.8
2022-12-17T09:42:59.921Z,4.8
2022-12-17T09:48:38.654Z,2.4
2022-12-17T09:54:11.170Z,3.6
2022-12-17T09:59:28.969Z,3.6
2022-12-17T10:05:22.735Z,4.8
2022-12-17T10:10:41.206Z,4.8
2022-12-17T10:16:23.978Z,8.4
2022-12-17T10:21:58.705Z,7.2
2022-12-17T10:27:27.624Z,3.6
2022-12-17T10:32:36.910Z,7.2
2022-12-17T10:38:08.902Z,5.9
2022-12-17T10:43:54.456Z,7.2
2022-12-17T10:49:18.688Z,5.9
2022-12-17T10:54:53.464Z,5.9
2022-12-17T11:00:47.539Z,5.9
2022-12-17T11:05:48.432Z,7.2
2022-12-17T11:11:38.793Z,7.2
2022-12-17T11:16:55.074Z,5.9
2022-12-17T11:22:41.664Z,5.9
2022-12-17T11:28:04.552Z,7.2
2022-12-17T11:33:34.949Z,4.8
2022-12-17T11:39:24.829Z,5.9
2022-12-17T11:44:54.748Z,4.8
2022-12-17T11:50:06.623Z,4.8
2022-12-17T11:55:57.235Z,5.9
2022-12-17T12:01:09.317Z,3.6
2022-12-17T12:06:57.830Z,2.4
2022-12-17T12:12:28.006Z,4.8
2022-12-17T12:18:01.122Z,3.6
2022-12-17T12:23:40.980Z,3.6
2022-12-17T12:28:54.609Z,4.8
2022-12-17T12:34:47.379Z,2.4
2022-12-17T12:40:00.620Z,4.8
2022-12-17T12:45:43.203Z,4.8
2022-12-17T12:51:13.622Z,2.4
2022-12-17T12:56:36.651Z,0
2022-12-17T13:02:01.849Z,0
2022-12-17T13:07:55.385Z,2.4
2022-12-17T13:13:26.007Z,3.6
2022-12-17T13:18:59.157Z,3.6
2022-12-17T13:24:26.616Z,5.9
2022-12-17T13:29:59.376Z,4.8
2022-12-17T13:35:35.128Z,5.9
2022-12-17T13:40:57.667Z,4.8
2022-12-17T13:46:21.804Z,7.2
2022-12-17T13:52:12.568Z,3.6
2022-12-17T13:57:19.185Z,2.4
2022-12-17T14:03:00.551Z,3.6
2022-12-17T14:08:43.822Z,3.6
2022-12-17T14:14:05.450Z,2.4
2022-12-17T14:19:30.628Z,2.4
2022-12-17T14:25:08.444Z,0
2022-12-17T14:30:29.120Z,2.4
2022-12-17T14:36:19.874Z,2.4
2022-12-17T14:41:43.689Z,3.6
2022-12-17T14:47:06.744Z,4.8
2022-12-17T14:52:57.622Z,4.8
2022-12-17T14:58:19.983Z,2.4
2022-12-17T15:03:56.754Z,5.9
2022-12-17T15:09:32.344Z,5.9
2022-12-17T15:14:48.448Z,5.9
2022-12-17T15:20:15.873Z,5.9
2022-12-17T15:25:57.358Z,4.8
2022-12-17T15:31:24.580Z,0
2022-12-17T15:37:07.928Z,2.4
2022-12-17T15:42:40.181Z,2.4
2022-12-17T15:47:56.792Z,3.6
2022-12-17T15:53:47.300Z,2.4
2022-12-17T15:58:55.919Z,4.8
2022-12-17T16:04:45.815Z,3.6
2022-12-17T16:10:22.185Z,3.6
2022-12-17T16:15:43.544Z,2.4
2022-12-17T16:21:22.397Z,3.6
2022-12-17T16:26:37.947Z,8.4
2022-12-17T16:32:36.322Z,8.4
2022-12-17T16:37:40.217Z,7.2
2022-12-17T16:43:39.460Z,5.9
2022-12-17T16:48:56.351Z,8.4
2022-12-17T16:54:22.525Z,8.4
2022-12-17T16:59:54.520Z,7.2
2022-12-17T17:05:45.125Z,7.2
2022-12-17T17:11:17.805Z,5.9
2022-12-17T17:16:45.754Z,8.4
2022-12-17T17:22:13.221Z,7.2
2022-12-17T17:27:33.967Z,5.9
2022-12-17T17:33:13.703Z,3.6
2022-12-17T17:38:41.820Z,4.8
2022-12-17T17:44:21.308Z,5.9
2022-12-17T17:49:37.934Z,8.4
2022-12-17T17:55:34.563Z,7.2
2022-12-17T18:00:49.864Z,2.4
2022-12-17T18:06:15.762Z,0
2022-12-17T18:11:55.750Z,2.4
2022-12-17T18:17:38.033Z,3.6
2022-12-17T18:23:08.506Z,4.8
2022-12-17T18:28:40.359Z,3.6
2022-12-17T18:34:10.137Z,0
2022-12-17T18:39:35.325Z,3.6
2022-12-17T18:45:02.550Z,3.6
2022-12-17T18:50:37.919Z,0
2022-12-17T18:56:26.861Z,2.4
2022-12-17T19:01:50.591Z,4.8
2022-12-17T19:07:01.004Z,0
2022-12-17T19:12:26.698Z,5.9
2022-12-17T19:18:14.661Z,0
2022-12-17T19:23:57.685Z,0
2022-12-17T19:29:02.624Z,0
2022-12-17T19:34:40.453Z,0
2022-12-17T19:40:13.725Z,0
2022-12-17T19:45:48.521Z,0
2022-12-17T19:51:29.669Z,0
2022-12-17T19:57:02.625Z,0
2022-12-17T20:02:21.132Z,0
2022-12-17T20:08:06.349Z,3.6
2022-12-17T20:13:32.971Z,0
2022-12-17T20:19:02.960Z,0
2022-12-17T20:24:38.195Z,0
2022-12-17T20:29:48.305Z,2.4
2022-12-17T20:35:43.548Z,0
2022-12-17T20:41:02.111Z,2.4
2022-12-17T20:46:34.170Z,0
2022-12-17T20:51:55.529Z,0
2022-12-17T20:57:35.605Z,0
2022-12-17T21:03:04.746Z,0
2022-12-17T21:08:27.204Z,0
2022-12-17T21:14:20.209Z,0
2022-12-17T21:19:44.673Z,0
2022-12-17T21:25:11.176Z,0
2022-12-17T21:30:45.091Z,0
2022-12-17T21:36:07.772Z,0
2022-12-17T21:41:40.118Z,2.4
2022-12-17T21:47:17.869Z,0
2022-12-17T21:52:50.026Z,0
2022-12-17T21:58:20.675Z,0
2022-12-17T22:03:51.342Z,0
2022-12-17T22:09:40.719Z,3.6
2022-12-17T22:14:57.639Z,2.4
2022-12-17T22:20:34.329Z,0
2022-12-17T22:25:55.347Z,0
2022-12-17T22:31:27.223Z,0
2022-12-17T22:38:02.444Z,0
2022-12-17T22:44:32.617Z,0
2022-12-17T22:48:06.801Z,0
2022-12-17T22:53:23.115Z,0
2022-12-17T22:59:07.036Z,0
2022-12-17T23:04:22.662Z,0
2022-12-17T23:10:01.445Z,0
2022-12-17T23:15:43.622Z,0
2022-12-17T23:20:56.171Z,0
2022-12-17T23:26:51.412Z,0
2022-12-17T23:32:18.794Z,0
2022-12-17T23:37:28.016Z,2.4
2022-12-17T23:43:12.960Z,0
2022-12-17T23:48:50.552Z,0
2022-12-17T23:54:07.856Z,0
2022-12-17T23:59:44.263Z,0
